Time;durP1;ratioP1;P1;durP2;ratioP2;P2;SDS_P1;SDS_P2;PMS_P1;PMS_P2;Temp;Humidity;BMP_temperature;BMP_pressure;BME280_temperature;BME280_humidity;BME280_pressure;Samples;Min_cycle;Max_cycle;Signal;HPM_P1;HPM_P2
2022/04/03 00:01:29;;;;;;;11.87;10.00;;;;;;;5.54;57.10;97482.66;5112899;28;20457;-68
2022/04/03 00:03:55;;;;;;;12.90;9.70;;;;;;;5.56;56.76;97485.13;5109334;27;20648;-68
2022/04/03 00:06:21;;;;;;;15.30;9.53;;;;;;;5.61;57.14;97485.63;5116451;27;20205;-67
2022/04/03 00:08:47;;;;;;;13.63;10.27;;;;;;;5.53;57.08;97491.41;5124996;27;20264;-68
2022/04/03 00:11:13;;;;;;;14.77;10.93;;;;;;;5.59;56.94;97494.50;5126225;27;20454;-68
2022/04/03 00:13:38;;;;;;;15.03;10.73;;;;;;;5.64;56.92;97493.22;5117160;27;20184;-68
2022/04/03 00:16:05;;;;;;;15.60;10.37;;;;;;;5.59;56.70;97489.31;5119185;27;20619;-68
2022/04/03 00:18:31;;;;;;;14.93;10.53;;;;;;;5.63;56.82;97494.16;5121216;27;20265;-67
2022/04/03 00:20:56;;;;;;;12.93;10.93;;;;;;;5.64;56.61;97493.22;5135096;27;20466;-68
2022/04/03 00:23:23;;;;;;;12.53;10.30;;;;;;;5.61;56.16;97490.84;5120156;28;20930;-68
2022/04/03 00:25:52;;;;;;;14.33;10.73;;;;;;;5.51;56.33;97493.28;5118922;28;20224;-68
2022/04/03 00:28:18;;;;;;;19.73;11.57;;;;;;;5.47;56.59;97491.03;5101417;28;20427;-67
2022/04/03 00:30:44;;;;;;;14.90;11.90;;;;;;;5.46;56.75;97489.38;5120114;28;20447;-68
2022/04/03 00:33:10;;;;;;;12.63;9.87;;;;;;;5.45;56.85;97493.75;5121307;28;20793;-68
2022/04/03 00:35:36;;;;;;;11.93;10.20;;;;;;;5.50;56.65;97486.41;5120792;28;20234;-67
2022/04/03 00:38:01;;;;;;;12.20;10.87;;;;;;;5.50;56.59;97496.00;5120183;28;20946;-68
2022/04/03 00:40:27;;;;;;;15.00;10.60;;;;;;;5.55;56.65;97493.88;5121625;28;20201;-67
2022/04/03 00:42:52;;;;;;;14.07;11.07;;;;;;;5.57;56.66;97496.38;5107007;28;20194;-68
2022/04/03 00:45:19;;;;;;;13.30;10.50;;;;;;;5.52;56.24;97499.31;5117519;27;20200;-69
2022/04/03 00:47:45;;;;;;;12.17;10.87;;;;;;;5.41;56.84;97502.69;5090560;28;20242;-68
2022/04/03 00:50:10;;;;;;;13.20;10.70;;;;;;;5.47;56.16;97501.44;5127332;27;20438;-68
2022/04/03 00:52:37;;;;;;;13.83;11.70;;;;;;;5.51;56.36;97502.88;5133635;27;20439;-68
2022/04/03 00:55:03;;;;;;;17.27;11.77;;;;;;;5.49;56.10;97499.53;5123797;28;20181;-68
2022/04/03 00:57:28;;;;;;;15.83;10.60;;;;;;;5.45;56.60;97500.69;5122881;27;20435;-69
2022/04/03 00:59:54;;;;;;;13.70;11.07;;;;;;;5.50;56.28;97502.03;5104516;28;20465;-68
2022/04/03 01:02:20;;;;;;;16.13;11.53;;;;;;;5.51;56.58;97497.66;5109977;28;20268;-68
2022/04/03 01:04:46;;;;;;;15.83;11.10;;;;;;;5.59;56.90;97502.31;5116332;27;20505;-66
2022/04/03 01:07:12;;;;;;;13.30;10.73;;;;;;;5.57;56.02;97505.00;5124199;27;20636;-67
2022/04/03 01:09:38;;;;;;;14.60;10.60;;;;;;;5.59;56.65;97500.50;5097650;27;20177;-67
2022/04/03 01:12:05;;;;;;;14.80;11.03;;;;;;;5.52;56.50;97497.53;5117669;27;20415;-67
2022/04/03 01:14:37;;;;;;;14.23;10.77;;;;;;;5.51;56.10;97502.88;5111800;28;20180;-68
2022/04/03 01:17:04;;;;;;;13.20;10.67;;;;;;;5.54;56.35;97507.84;5120806;27;20480;-68
2022/04/03 01:19:30;;;;;;;16.13;10.60;;;;;;;5.58;56.39;97509.25;5110732;28;20423;-68
2022/04/03 01:21:56;;;;;;;11.80;10.60;;;;;;;5.54;56.23;97508.66;5121043;27;20914;-68
2022/04/03 01:24:22;;;;;;;13.93;10.97;;;;;;;5.48;56.25;97519.50;5114272;27;20192;-68
2022/04/03 01:26:48;;;;;;;14.63;10.87;;;;;;;5.52;56.43;97512.31;5112137;28;20441;-68
2022/04/03 01:29:15;;;;;;;13.77;10.70;;;;;;;5.53;56.51;97495.78;5118940;27;20422;-69
2022/04/03 01:31:41;;;;;;;14.10;12.23;;;;;;;5.51;56.01;97510.66;5103457;28;20592;-68
2022/04/03 01:34:07;;;;;;;14.60;10.80;;;;;;;5.53;56.30;97503.59;5111353;28;20447;-69
2022/04/03 01:36:32;;;;;;;17.90;11.90;;;;;;;5.50;56.34;97506.41;5111073;28;20511;-68
2022/04/03 01:38:58;;;;;;;19.50;11.67;;;;;;;5.54;57.02;97520.84;5110849;28;20309;-68
2022/04/03 01:41:23;;;;;;;17.13;13.33;;;;;;;5.55;56.32;97519.88;5111302;28;20340;-68
2022/04/03 01:43:49;;;;;;;16.50;12.77;;;;;;;5.56;56.46;97516.34;5111423;28;20172;-67
2022/04/03 01:46:14;;;;;;;18.80;14.00;;;;;;;5.54;55.78;97513.84;5111333;27;20224;-68
2022/04/03 01:48:40;;;;;;;16.70;12.67;;;;;;;5.54;56.48;97513.84;5111280;28;20173;-68
2022/04/03 01:51:05;;;;;;;15.63;11.50;;;;;;;5.51;56.18;97510.66;5111673;28;20184;-68
2022/04/03 01:53:31;;;;;;;14.57;11.33;;;;;;;5.51;55.80;97516.69;5110711;28;20222;-68
2022/04/03 01:56:04;;;;;;;14.87;11.60;;;;;;;5.44;56.25;97512.03;5111040;28;20275;-69
2022/04/03 01:58:30;;;;;;;12.97;11.30;;;;;;;5.48;56.24;97510.88;5109187;28;20177;-68
2022/04/03 02:00:56;;;;;;;12.60;10.60;;;;;;;5.42;55.88;97516.53;5111394;28;20805;-68
2022/04/03 02:03:22;;;;;;;19.70;10.67;;;;;;;5.47;55.74;97507.47;5111372;28;20502;-67
2022/04/03 02:05:47;;;;;;;14.83;11.10;;;;;;;5.43;55.86;97515.56;5111529;28;20664;-67
2022/04/03 02:08:13;;;;;;;16.53;10.47;;;;;;;5.40;56.46;97516.63;5111514;28;20173;-67
2022/04/03 02:10:38;;;;;;;13.80;11.30;;;;;;;5.41;56.38;97527.88;5110556;28;20192;-68
2022/04/03 02:13:04;;;;;;;18.37;10.93;;;;;;;5.38;56.33;97524.56;5110411;28;20173;-68
2022/04/03 02:15:30;;;;;;;13.83;10.53;;;;;;;5.41;56.67;97525.28;5110917;28;20775;-67
2022/04/03 02:17:55;;;;;;;15.10;10.70;;;;;;;5.41;56.14;97526.09;5111407;28;20427;-67
2022/04/03 02:20:21;;;;;;;12.03;9.70;;;;;;;5.36;56.39;97521.25;5110742;28;20201;-67
2022/04/03 02:22:46;;;;;;;14.97;11.30;;;;;;;5.35;56.38;97524.78;5111328;28;20184;-68
2022/04/03 02:25:13;;;;;;;14.33;10.50;;;;;;;5.45;56.35;97519.75;5093641;28;20189;-68
2022/04/03 02:27:40;;;;;;;15.37;11.00;;;;;;;5.50;56.77;97527.19;5092332;28;20254;-67
2022/04/03 02:30:11;;;;;;;21.63;11.93;;;;;;;5.57;56.47;97522.38;5119188;28;20419;-68
2022/04/03 02:32:37;;;;;;;13.30;10.40;;;;;;;5.51;56.67;97523.66;5110313;28;20454;-68
2022/04/03 02:35:04;;;;;;;16.30;10.77;;;;;;;5.54;56.03;97523.44;5095013;28;20462;-68
2022/04/03 02:37:30;;;;;;;19.80;11.57;;;;;;;5.47;56.28;97527.41;5109280;28;20435;-69
2022/04/03 02:39:55;;;;;;;17.33;11.30;;;;;;;5.52;55.90;97520.13;5110962;28;20889;-68
2022/04/03 02:42:21;;;;;;;14.50;10.80;;;;;;;5.52;56.48;97520.94;5111184;28;20174;-68
2022/04/03 02:44:49;;;;;;;12.13;10.27;;;;;;;5.50;56.03;97524.59;5110598;28;20556;-68
2022/04/03 02:47:15;;;;;;;14.83;11.50;;;;;;;5.51;56.40;97529.69;5114083;28;20173;-68
2022/04/03 02:49:40;;;;;;;14.70;11.20;;;;;;;5.58;56.42;97527.47;5114264;28;20784;-68
2022/04/03 02:52:06;;;;;;;16.23;10.83;;;;;;;5.57;56.25;97533.59;5114514;28;20181;-68
2022/04/03 02:54:31;;;;;;;13.77;11.20;;;;;;;5.63;55.92;97534.91;5114054;27;20177;-68
2022/04/03 02:56:57;;;;;;;14.43;11.03;;;;;;;5.67;55.77;97534.56;5121145;27;20192;-68
2022/04/03 02:59:22;;;;;;;13.10;11.20;;;;;;;5.57;55.99;97533.59;5122557;27;20222;-68
2022/04/03 03:01:48;;;;;;;16.20;12.10;;;;;;;5.57;56.05;97538.81;5114588;28;20196;-69
2022/04/03 03:04:14;;;;;;;16.17;11.50;;;;;;;5.61;56.03;97537.66;5108508;27;20177;-69
2022/04/03 03:06:40;;;;;;;13.50;10.87;;;;;;;5.59;55.71;97534.31;5111322;27;20279;-67
2022/04/03 03:09:06;;;;;;;14.97;11.60;;;;;;;5.54;55.68;97537.25;5133023;27;20509;-70
2022/04/03 03:11:31;;;;;;;13.97;10.93;;;;;;;5.58;55.56;97527.47;5117084;27;20177;-68
2022/04/03 03:13:56;;;;;;;14.57;11.97;;;;;;;5.60;55.42;97522.97;5119908;27;20204;-67
2022/04/03 03:16:22;;;;;;;17.50;11.37;;;;;;;5.64;55.65;97528.78;5113139;28;20196;-68
2022/04/03 03:18:47;;;;;;;17.77;11.57;;;;;;;5.65;55.43;97525.25;5096754;28;20177;-68
2022/04/03 03:21:13;;;;;;;13.03;10.70;;;;;;;5.64;55.40;97524.41;5095902;28;20201;-68
2022/04/03 03:23:40;;;;;;;18.13;11.40;;;;;;;5.73;55.22;97532.47;5093981;28;20178;-68
2022/04/03 03:26:06;;;;;;;14.33;11.60;;;;;;;5.73;55.54;97524.66;5093161;28;20198;-67
2022/04/03 03:28:31;;;;;;;12.70;10.30;;;;;;;5.73;54.88;97537.69;5092733;28;20463;-68
2022/04/03 03:30:57;;;;;;;13.93;10.70;;;;;;;5.76;54.85;97537.47;5093759;28;20448;-68
2022/04/03 03:33:22;;;;;;;15.57;10.90;;;;;;;5.78;54.69;97541.59;5105064;28;20821;-68
2022/04/03 03:35:48;;;;;;;14.03;11.00;;;;;;;5.80;54.90;97541.47;5125143;27;20196;-68
2022/04/03 03:38:13;;;;;;;17.77;10.83;;;;;;;5.71;55.45;97540.41;5132025;27;20192;-67
2022/04/03 03:40:39;;;;;;;15.00;11.37;;;;;;;5.66;54.94;97538.16;5112445;27;20210;-69
2022/04/03 03:43:05;;;;;;;19.27;12.00;;;;;;;5.66;55.26;97538.16;5113311;28;20180;-68
2022/04/03 03:45:30;;;;;;;16.90;12.47;;;;;;;5.67;55.43;97538.97;5112401;28;20204;-69
2022/04/03 03:47:57;;;;;;;21.37;13.57;;;;;;;5.72;54.94;97541.22;5113192;28;20177;-66
2022/04/03 03:50:23;;;;;;;19.03;12.00;;;;;;;5.73;54.56;97542.88;5121091;27;20180;-69
2022/04/03 03:52:49;;;;;;;18.27;12.90;;;;;;;5.65;54.58;97541.69;5113220;28;20422;-70
2022/04/03 03:55:15;;;;;;;18.23;12.40;;;;;;;5.61;55.09;97545.44;5117676;27;20250;-68
2022/04/03 03:57:44;;;;;;;15.67;11.13;;;;;;;5.62;55.11;97543.66;5114572;27;20532;-67
2022/04/03 04:00:10;;;;;;;18.57;11.87;;;;;;;5.65;55.41;97552.09;5112240;28;20817;-67
2022/04/03 04:02:37;;;;;;;15.23;11.23;;;;;;;5.68;55.28;97549.25;5112409;28;21309;-67
2022/04/03 04:05:03;;;;;;;14.43;11.67;;;;;;;5.65;55.19;97546.88;5113490;27;20430;-66
2022/04/03 04:07:46;;;;;;;14.63;11.43;;;;;;;5.71;55.04;97550.81;5111522;28;20823;-69
2022/04/03 04:10:13;;;;;;;15.53;11.60;;;;;;;5.71;54.73;97549.97;5113013;28;20472;-68
2022/04/03 04:12:40;;;;;;;13.27;11.13;;;;;;;5.62;54.84;97556.66;5112419;28;20472;-68
2022/04/03 04:15:06;;;;;;;16.57;11.30;;;;;;;5.62;55.04;97561.84;5120940;27;20421;-67
2022/04/03 04:17:36;;;;;;;14.43;10.67;;;;;;;5.60;54.69;97556.78;5114122;27;20489;-68
2022/04/03 04:20:04;;;;;;;15.60;11.83;;;;;;;5.61;54.95;97558.44;5117562;27;20458;-67
2022/04/03 04:22:30;;;;;;;15.40;11.93;;;;;;;5.65;55.33;97567.69;5127253;27;20426;-68
2022/04/03 04:24:56;;;;;;;15.63;12.00;;;;;;;5.68;55.66;97562.25;5112713;28;20418;-68
2022/04/03 04:27:21;;;;;;;13.10;11.00;;;;;;;5.57;55.33;97564.81;5129079;27;20835;-68
2022/04/03 04:29:46;;;;;;;12.27;10.23;;;;;;;5.57;55.16;97569.19;5112105;28;20541;-68
2022/04/03 04:32:13;;;;;;;17.13;12.40;;;;;;;5.57;55.45;97570.00;5120483;27;20176;-68
2022/04/03 04:34:38;;;;;;;12.57;10.03;;;;;;;5.48;55.22;97571.50;5114794;27;20584;-68
2022/04/03 04:37:03;;;;;;;16.77;12.30;;;;;;;5.45;55.20;97573.50;5116066;27;20530;-68
2022/04/03 04:39:29;;;;;;;16.33;11.87;;;;;;;5.53;55.34;97571.19;5113440;27;20260;-68
2022/04/03 04:41:54;;;;;;;14.77;11.90;;;;;;;5.54;55.18;97576.25;5129646;27;20196;-68
2022/04/03 04:44:20;;;;;;;15.50;10.80;;;;;;;5.58;55.21;97576.88;5115152;27;20173;-69
2022/04/03 04:46:45;;;;;;;12.97;10.77;;;;;;;5.49;55.13;97585.34;5112422;28;20220;-68
2022/04/03 04:49:11;;;;;;;13.93;11.83;;;;;;;5.51;55.60;97584.28;5119924;27;20710;-68
2022/04/03 04:51:36;;;;;;;14.60;11.30;;;;;;;5.56;55.43;97578.75;5112799;27;20295;-68
2022/04/03 04:54:02;;;;;;;13.40;11.40;;;;;;;5.60;55.10;97582.78;5111803;28;20173;-68
2022/04/03 04:56:27;;;;;;;18.53;12.73;;;;;;;5.62;55.34;97593.06;5116667;27;20188;-68
2022/04/03 04:58:53;;;;;;;16.10;11.60;;;;;;;5.56;55.45;97589.13;5123352;27;20229;-68
2022/04/03 05:01:18;;;;;;;14.57;11.77;;;;;;;5.57;54.93;97590.00;5114660;28;20209;-69
2022/04/03 05:03:44;;;;;;;15.20;11.70;;;;;;;5.60;55.13;97590.59;5115039;28;20173;-68
2022/04/03 05:06:12;;;;;;;14.10;11.43;;;;;;;5.65;54.97;97593.69;5109801;28;20872;-69
2022/04/03 05:08:38;;;;;;;15.43;12.20;;;;;;;5.62;54.96;97588.72;5112788;28;20180;-69
2022/04/03 05:11:03;;;;;;;15.33;11.30;;;;;;;5.53;55.17;97594.59;5112090;28;20411;-69
2022/04/03 05:13:28;;;;;;;15.57;12.20;;;;;;;5.53;55.06;97605.00;5112667;28;20185;-68
2022/04/03 05:15:54;;;;;;;17.47;12.27;;;;;;;5.46;55.02;97604.59;5109917;28;20204;-67
2022/04/03 05:18:20;;;;;;;17.60;12.50;;;;;;;5.48;55.30;97607.06;5126226;27;20177;-68
2022/04/03 05:20:46;;;;;;;15.17;11.50;;;;;;;5.44;55.30;97605.63;5122534;27;20206;-67
2022/04/03 05:23:11;;;;;;;17.50;11.90;;;;;;;5.50;55.43;97611.22;5115581;27;20418;-68
2022/04/03 05:25:37;;;;;;;18.20;12.80;;;;;;;5.48;55.17;97613.09;5120621;27;20269;-68
2022/04/03 05:28:02;;;;;;;15.30;12.57;;;;;;;5.56;55.33;97620.34;5120128;27;20172;-68
2022/04/03 05:30:28;;;;;;;15.00;12.20;;;;;;;5.60;55.21;97620.97;5112782;27;20645;-68
2022/04/03 05:32:53;;;;;;;17.40;11.93;;;;;;;5.62;54.94;97614.72;5123610;27;20168;-67
2022/04/03 05:35:18;;;;;;;14.93;12.47;;;;;;;5.59;55.17;97619.31;5122262;27;20192;-67
2022/04/03 05:37:45;;;;;;;19.03;12.60;;;;;;;5.64;55.39;97620.66;5115527;27;20279;-68
2022/04/03 05:40:12;;;;;;;16.60;13.27;;;;;;;5.62;54.87;97622.53;5122615;27;20246;-68
2022/04/03 05:42:37;;;;;;;16.37;12.60;;;;;;;5.58;55.60;97621.06;5120113;27;20426;-68
2022/04/03 05:45:05;;;;;;;16.33;12.20;;;;;;;5.58;55.01;97621.06;5124065;27;20481;-68
2022/04/03 05:47:31;;;;;;;16.10;12.10;;;;;;;5.58;55.49;97630.66;5121206;27;20518;-67
2022/04/03 05:49:57;;;;;;;15.30;11.67;;;;;;;5.59;55.28;97635.72;5116477;28;20936;-68
2022/04/03 05:52:23;;;;;;;15.80;11.30;;;;;;;5.63;55.61;97631.13;5122331;27;20501;-68
2022/04/03 05:54:48;;;;;;;16.10;11.53;;;;;;;5.70;54.77;97637.56;5121324;28;20911;-66
2022/04/03 05:57:14;;;;;;;15.70;11.80;;;;;;;5.68;55.58;97634.25;5123832;28;20222;-67
2022/04/03 05:59:39;;;;;;;15.77;12.00;;;;;;;5.72;55.48;97645.25;5119592;28;20201;-67
2022/04/03 06:02:05;;;;;;;19.10;12.57;;;;;;;5.76;55.53;97646.69;5119970;28;20177;-68
2022/04/03 06:04:32;;;;;;;15.57;11.23;;;;;;;5.77;54.83;97648.38;5121607;28;20177;-68
2022/04/03 06:06:58;;;;;;;15.43;12.07;;;;;;;5.71;54.55;97654.84;5122891;27;20426;-69
2022/04/03 06:09:23;;;;;;;15.93;12.60;;;;;;;5.65;55.76;97658.72;5121432;27;21001;-68
2022/04/03 06:11:49;;;;;;;18.80;12.57;;;;;;;5.77;55.61;97656.16;5117127;28;20188;-70
2022/04/03 06:14:14;;;;;;;19.10;11.30;;;;;;;5.77;55.51;97656.16;5119522;28;20264;-68
2022/04/03 06:16:40;;;;;;;19.90;12.13;;;;;;;5.83;55.48;97658.31;5122700;27;20258;-69
2022/04/03 06:19:05;;;;;;;12.70;10.50;;;;;;;5.88;55.01;97656.22;5123062;27;20258;-68
2022/04/03 06:21:31;;;;;;;14.23;11.40;;;;;;;5.90;54.97;97658.69;5122633;27;20560;-68
2022/04/03 06:23:56;;;;;;;16.67;13.00;;;;;;;5.94;54.79;97654.94;5123213;27;20184;-67
2022/04/03 06:26:22;;;;;;;11.47;9.67;;;;;;;5.94;54.79;97663.56;5123855;27;20249;-68
2022/04/03 06:28:47;;;;;;;12.90;9.93;;;;;;;5.91;54.63;97662.97;5127144;27;20176;-67
2022/04/03 06:31:13;;;;;;;12.37;9.17;;;;;;;5.88;54.46;97658.81;5126792;27;20175;-68
2022/04/03 06:33:39;;;;;;;11.60;9.70;;;;;;;5.89;54.84;97668.28;5123756;27;20260;-68
2022/04/03 06:36:06;;;;;;;13.87;10.33;;;;;;;5.89;54.04;97678.69;5123324;27;20290;-68
2022/04/03 06:38:31;;;;;;;11.93;9.73;;;;;;;5.98;54.24;97672.00;5122727;27;20195;-68
2022/04/03 06:40:58;;;;;;;12.93;10.10;;;;;;;5.98;53.98;97672.81;5122494;27;20455;-69
2022/04/03 06:43:25;;;;;;;12.83;10.50;;;;;;;6.04;54.68;97674.16;5124357;27;20185;-68
2022/04/03 06:45:52;;;;;;;11.60;9.70;;;;;;;6.11;54.58;97680.56;5122271;27;20528;-68
2022/04/03 06:48:18;;;;;;;10.80;8.93;;;;;;;6.15;54.12;97686.41;5123106;27;20429;-69
2022/04/03 06:50:43;;;;;;;14.73;9.20;;;;;;;6.11;53.93;97682.34;5125976;27;20517;-66
2022/04/03 06:53:09;;;;;;;11.57;9.00;;;;;;;6.16;53.51;97695.88;5119097;27;20181;-69
2022/04/03 06:55:34;;;;;;;11.90;8.50;;;;;;;6.24;54.18;97690.06;5120994;27;20205;-68
2022/04/03 06:58:00;;;;;;;12.37;8.60;;;;;;;6.19;53.10;97693.03;5124179;27;20177;-66
2022/04/03 07:00:26;;;;;;;10.00;8.87;;;;;;;6.15;52.67;97689.00;5125483;27;20578;-68
2022/04/03 07:02:52;;;;;;;10.90;8.00;;;;;;;6.20;53.56;97705.09;5126692;27;20264;-68
2022/04/03 07:05:17;;;;;;;9.83;8.53;;;;;;;6.38;53.09;97699.50;5117690;27;20254;-68
2022/04/03 07:07:44;;;;;;;10.30;8.00;;;;;;;6.47;52.74;97697.97;5133824;27;20173;-68
2022/04/03 07:10:09;;;;;;;9.30;8.30;;;;;;;6.54;53.04;97702.63;5125284;27;20414;-66
2022/04/03 07:12:35;;;;;;;11.07;8.37;;;;;;;6.66;52.34;97705.25;5123546;27;20180;-68
2022/04/03 07:15:01;;;;;;;11.90;8.60;;;;;;;6.79;51.81;97703.38;5124885;27;20181;-68
2022/04/03 07:17:26;;;;;;;12.07;7.83;;;;;;;6.78;52.23;97714.75;5124148;27;20259;-68
2022/04/03 07:19:52;;;;;;;11.10;8.47;;;;;;;6.94;51.78;97710.97;5118899;27;20432;-68
2022/04/03 07:22:18;;;;;;;10.60;8.00;;;;;;;6.98;51.70;97712.38;5117316;27;20174;-69
2022/04/03 07:24:43;;;;;;;9.03;7.37;;;;;;;7.03;50.99;97716.31;5130415;27;20226;-69
2022/04/03 07:27:08;;;;;;;10.13;8.50;;;;;;;7.01;50.84;97712.16;5129824;27;20295;-68
2022/04/03 07:29:34;;;;;;;13.50;8.47;;;;;;;7.01;50.43;97712.16;5122508;27;20229;-68
2022/04/03 07:32:00;;;;;;;9.33;8.17;;;;;;;7.08;50.65;97715.94;5127888;27;20187;-67
2022/04/03 07:34:25;;;;;;;10.90;7.40;;;;;;;7.04;50.11;97715.34;5123682;27;20767;-69
2022/04/03 07:36:51;;;;;;;8.50;7.63;;;;;;;7.12;50.44;97725.19;5121363;27;20273;-69
2022/04/03 07:39:16;;;;;;;8.53;7.27;;;;;;;7.25;50.69;97729.47;5121712;27;20173;-69
2022/04/03 07:41:43;;;;;;;13.70;8.00;;;;;;;7.40;49.92;97723.06;5122314;27;20275;-67
2022/04/03 07:44:09;;;;;;;8.27;6.90;;;;;;;7.56;49.66;97729.72;5118912;27;21053;-69
2022/04/03 07:46:35;;;;;;;8.13;7.33;;;;;;;7.79;49.36;97736.53;5129449;27;20776;-69
2022/04/03 07:49:01;;;;;;;10.33;7.77;;;;;;;7.88;47.71;97731.53;5110142;27;20489;-68
2022/04/03 07:51:27;;;;;;;9.10;8.10;;;;;;;8.00;48.59;97746.22;5113944;27;20498;-70
2022/04/03 07:53:54;;;;;;;8.77;7.80;;;;;;;7.96;48.21;97739.56;5114723;27;20184;-69
2022/04/03 07:56:19;;;;;;;9.10;7.50;;;;;;;7.91;48.20;97745.16;5125684;27;20443;-68
2022/04/03 07:58:44;;;;;;;8.87;7.40;;;;;;;7.75;46.79;97737.72;5129594;27;20511;-68
2022/04/03 08:01:10;;;;;;;11.30;7.50;;;;;;;7.71;48.06;97753.75;5121607;27;20606;-68
2022/04/03 08:03:35;;;;;;;9.20;7.70;;;;;;;7.84;47.64;97755.25;5125324;27;20181;-69
2022/04/03 08:06:01;;;;;;;9.67;7.40;;;;;;;7.80;47.70;97755.63;5124917;27;20307;-69
2022/04/03 08:08:26;;;;;;;9.47;7.60;;;;;;;7.72;47.10;97753.63;5123102;27;20193;-69
2022/04/03 08:10:52;;;;;;;7.63;6.90;;;;;;;7.69;46.43;97756.47;5121089;27;20274;-69
2022/04/03 08:13:18;;;;;;;7.80;7.00;;;;;;;7.63;47.12;97759.56;5121239;27;20630;-70
2022/04/03 08:15:43;;;;;;;9.50;7.43;;;;;;;7.62;47.61;97755.28;5127306;27;20275;-69
2022/04/03 08:18:09;;;;;;;9.20;7.57;;;;;;;7.50;48.19;97765.75;5121490;27;20509;-69
2022/04/03 08:20:34;;;;;;;10.20;7.50;;;;;;;7.40;48.77;97770.00;5123459;27;20231;-68
2022/04/03 08:23:03;;;;;;;10.30;8.07;;;;;;;7.29;48.06;97773.44;5118215;27;20184;-68
2022/04/03 08:25:39;;;;;;;9.73;8.40;;;;;;;7.36;48.71;97774.66;5114340;27;20283;-70
2022/04/03 08:28:07;;;;;;;13.83;9.13;;;;;;;7.43;48.80;97775.00;5126664;27;20418;-70
2022/04/03 08:30:36;;;;;;;10.93;8.40;;;;;;;7.48;47.92;97772.03;5122436;27;20422;-68
2022/04/03 08:33:04;;;;;;;19.80;7.73;;;;;;;7.47;48.56;97771.19;5131767;27;20820;-70
2022/04/03 08:35:33;;;;;;;9.97;7.80;;;;;;;7.49;48.47;97771.09;5124153;27;20446;-69
2022/04/03 08:37:59;;;;;;;8.03;7.23;;;;;;;7.45;47.97;97780.09;5124542;27;20465;-69
2022/04/03 08:40:26;;;;;;;10.60;7.50;;;;;;;7.53;47.65;97780.31;5122839;27;20456;-69
2022/04/03 08:42:53;;;;;;;10.67;7.10;;;;;;;7.56;47.27;97787.91;5120659;27;20431;-69
2022/04/03 08:45:19;;;;;;;9.80;7.50;;;;;;;7.52;46.89;97789.94;5118467;27;20443;-70
2022/04/03 08:47:45;;;;;;;9.47;7.37;;;;;;;7.47;47.46;97788.63;5120637;27;20454;-69
2022/04/03 08:50:15;;;;;;;8.63;7.40;;;;;;;7.62;47.47;97786.59;5128074;27;20421;-69
2022/04/03 08:52:48;;;;;;;9.67;7.73;;;;;;;7.71;48.01;97785.88;5122902;27;20527;-68
2022/04/03 08:55:14;;;;;;;9.47;8.10;;;;;;;7.88;47.26;97789.78;5125390;27;20415;-69
2022/04/03 08:57:40;;;;;;;8.97;7.53;;;;;;;8.04;46.32;97788.56;5121166;27;20839;-69
2022/04/03 09:00:07;;;;;;;8.17;7.27;;;;;;;8.07;46.71;97788.31;5131210;27;20422;-69
2022/04/03 09:02:32;;;;;;;9.57;7.53;;;;;;;8.03;45.45;97792.13;5115713;27;20427;-69
2022/04/03 09:04:58;;;;;;;7.70;6.90;;;;;;;7.99;46.21;97794.16;5131272;27;20445;-69
2022/04/03 09:07:23;;;;;;;10.60;8.37;;;;;;;7.92;46.27;97796.41;5123911;27;20189;-69
2022/04/03 09:10:00;;;;;;;8.40;7.00;;;;;;;7.93;46.38;97792.84;5124146;27;20653;-70
2022/04/03 09:12:26;;;;;;;7.37;6.30;;;;;;;7.88;45.54;97797.59;5129652;27;20208;-69
2022/04/03 09:14:52;;;;;;;12.47;8.73;;;;;;;7.74;45.24;97803.91;5123297;27;20429;-69
2022/04/03 09:17:32;;;;;;;15.70;10.03;;;;;;;7.82;45.40;97798.91;5130178;27;20445;-69
2022/04/03 09:20:05;;;;;;;10.30;7.67;;;;;;;8.24;46.56;97792.19;5117123;27;20463;-68
2022/04/03 09:22:33;;;;;;;8.67;7.87;;;;;;;8.72;47.17;97786.56;5121255;27;20418;-69
2022/04/03 09:24:59;;;;;;;10.70;7.30;;;;;;;8.88;44.32;97788.75;5117633;27;20410;-68
2022/04/03 09:27:24;;;;;;;7.67;6.80;;;;;;;8.84;44.27;97792.59;5122416;27;20420;-68
2022/04/03 09:30:10;;;;;;;6.83;6.03;;;;;;;8.56;43.47;97794.84;5120019;27;20256;-70
2022/04/03 09:32:47;;;;;;;7.30;6.50;;;;;;;8.34;42.71;97794.91;5113648;27;20245;-70
2022/04/03 09:35:14;;;;;;;8.20;5.73;;;;;;;8.19;44.19;97803.00;5123930;27;20442;-70
2022/04/03 09:38:05;;;;;;;7.87;6.60;;;;;;;8.09;44.62;97805.53;5123150;27;20422;-68
2022/04/03 09:40:32;;;;;;;6.23;5.63;;;;;;;7.96;45.23;97799.59;5120550;27;20981;-67
2022/04/03 09:43:15;;;;;;;12.80;7.83;;;;;;;7.98;45.07;97805.53;5124280;27;20458;-69
2022/04/03 09:46:07;;;;;;;9.40;7.80;;;;;;;7.90;44.19;97807.94;5117937;27;20450;-69
2022/04/03 09:48:40;;;;;;;7.53;6.30;;;;;;;7.84;45.16;97794.41;5121812;27;20895;-70
2022/04/03 09:51:19;;;;;;;8.30;6.30;;;;;;;7.75;45.46;97807.38;5124749;27;20582;-69
2022/04/03 09:53:52;;;;;;;8.53;6.80;;;;;;;7.80;45.12;97803.44;5111728;28;20453;-69
2022/04/03 09:56:20;;;;;;;8.03;7.17;;;;;;;7.68;46.20;97799.19;5116388;27;20445;-69
2022/04/03 09:58:49;;;;;;;8.40;6.70;;;;;;;7.74;45.50;97803.09;5119232;28;20481;-69
2022/04/03 10:01:21;;;;;;;7.67;6.17;;;;;;;8.03;45.26;97811.25;5119620;28;20490;-69
2022/04/03 10:03:47;;;;;;;6.80;6.10;;;;;;;8.14;45.26;97807.75;5112924;28;20417;-69
2022/04/03 10:06:13;;;;;;;6.43;5.83;;;;;;;8.01;43.41;97805.31;5126583;27;20434;-69
2022/04/03 10:08:38;;;;;;;7.33;5.90;;;;;;;8.02;43.82;97806.13;5127659;28;20415;-69
2022/04/03 10:11:04;;;;;;;9.53;5.97;;;;;;;7.92;42.94;97806.84;5120068;28;20173;-70
2022/04/03 10:13:29;;;;;;;8.67;6.07;;;;;;;7.75;43.63;97804.75;5126903;28;20677;-69
2022/04/03 10:15:55;;;;;;;8.40;5.90;;;;;;;7.52;43.81;97810.81;5124139;27;20222;-69
2022/04/03 10:18:20;;;;;;;8.83;6.53;;;;;;;7.49;45.02;97815.44;5122088;28;20180;-70
2022/04/03 10:20:46;;;;;;;7.97;6.27;;;;;;;7.60;46.26;97806.75;5119655;28;20262;-68
2022/04/03 10:23:13;;;;;;;6.53;5.70;;;;;;;7.70;46.29;97810.31;5119433;28;20178;-68
2022/04/03 10:25:41;;;;;;;8.47;6.27;;;;;;;7.75;46.35;97816.00;5126528;27;20820;-68
2022/04/03 10:28:07;;;;;;;7.50;6.43;;;;;;;7.74;46.38;97808.31;5125516;28;20414;-69
2022/04/03 10:30:38;;;;;;;10.20;6.10;;;;;;;7.76;45.61;97816.81;5129982;28;20418;-68
2022/04/03 10:33:04;;;;;;;14.27;6.07;;;;;;;7.79;45.49;97806.16;5130091;28;20176;-70
2022/04/03 10:35:30;;;;;;;9.40;6.57;;;;;;;7.83;45.49;97808.41;5128270;27;20450;-69
2022/04/03 10:38:01;;;;;;;8.90;5.97;;;;;;;7.77;46.10;97815.88;5125254;28;20445;-69
2022/04/03 10:40:30;;;;;;;7.00;6.00;;;;;;;7.75;45.29;97805.56;5113919;27;20205;-69
2022/04/03 10:43:02;;;;;;;8.90;5.43;;;;;;;7.73;45.38;97812.69;5119924;27;20501;-69
2022/04/03 10:45:46;;;;;;;6.90;6.00;;;;;;;7.54;45.95;97818.50;5120844;27;20495;-68
2022/04/03 10:48:20;;;;;;;5.60;4.70;;;;;;;7.50;46.52;97811.84;5119421;28;20419;-69
2022/04/03 10:50:59;;;;;;;6.73;5.43;;;;;;;7.38;46.82;97814.44;5119466;28;20422;-69
2022/04/03 10:53:27;;;;;;;7.00;5.50;;;;;;;7.37;45.68;97811.97;5122420;28;20423;-68
2022/04/03 10:55:56;;;;;;;7.50;6.37;;;;;;;7.42;46.81;97809.84;5122647;27;20445;-70
2022/04/03 10:58:22;;;;;;;6.90;5.80;;;;;;;7.47;46.25;97807.69;5119094;27;20428;-69
2022/04/03 11:00:48;;;;;;;6.43;5.50;;;;;;;7.53;45.61;97806.41;5114785;28;20543;-69
2022/04/03 11:03:13;;;;;;;9.90;6.40;;;;;;;7.46;45.90;97811.25;5129770;28;20649;-69
2022/04/03 11:05:39;;;;;;;10.03;6.23;;;;;;;7.55;46.13;97809.72;5127821;27;20467;-69
2022/04/03 11:08:04;;;;;;;7.70;5.70;;;;;;;7.58;45.34;97801.66;5125832;27;20184;-69
2022/04/03 11:10:54;;;;;;;6.20;5.60;;;;;;;7.65;45.84;97799.41;5117717;27;20184;-69
2022/04/03 11:13:26;;;;;;;8.73;5.67;;;;;;;7.69;45.04;97798.22;5117994;27;20671;-69
2022/04/03 11:15:55;;;;;;;8.47;5.90;;;;;;;7.57;44.01;97801.78;5123482;27;20509;-69
2022/04/03 11:18:30;;;;;;;6.93;5.90;;;;;;;7.53;45.04;97796.81;5125327;27;20414;-69
2022/04/03 11:21:23;;;;;;;6.23;5.37;;;;;;;7.74;45.29;97798.69;5122073;27;20458;-69
2022/04/03 11:23:52;;;;;;;5.77;5.10;;;;;;;7.86;45.03;97796.06;5122741;27;20443;-69
2022/04/03 11:26:18;;;;;;;7.00;5.53;;;;;;;7.97;44.75;97794.28;5122122;27;20454;-69
2022/04/03 11:28:45;;;;;;;10.10;6.13;;;;;;;8.11;43.84;97792.38;5125873;27;20426;-69
2022/04/03 11:31:10;;;;;;;7.53;5.60;;;;;;;8.12;43.92;97792.22;5126110;27;20425;-68